sensor_id;sensor_type;location;lat;lon;timestamp;P1;durP1;ratioP1;P2;durP2;ratioP2
21979;SDS011;11154;48.558;9.234;2023-08-24T00:01:57;4.63;;;2.92;;
21979;SDS011;11154;48.558;9.234;2023-08-24T00:03:59;4.20;;;2.78;;
21979;SDS011;11154;48.558;9.234;2023-08-24T00:06:00;7.25;;;3.55;;
21979;SDS011;11154;48.558;9.234;2023-08-24T00:08:02;5.22;;;3.05;;
21979;SDS011;11154;48.558;9.234;2023-08-24T00:10:05;6.10;;;3.40;;
21979;SDS011;11154;48.558;9.234;2023-08-24T00:12:09;4.28;;;3.10;;
21979;SDS011;11154;48.558;9.234;2023-08-24T00:14:10;4.70;;;3.47;;
21979;SDS011;11154;48.558;9.234;2023-08-24T00:16:12;5.30;;;3.40;;
21979;SDS011;11154;48.558;9.234;2023-08-24T00:18:14;8.02;;;3.38;;
21979;SDS011;11154;48.558;9.234;2023-08-24T00:20:18;5.70;;;3.65;;
21979;SDS011;11154;48.558;9.234;2023-08-24T00:22:20;4.95;;;3.38;;
21979;SDS011;11154;48.558;9.234;2023-08-24T00:24:22;5.93;;;3.55;;
21979;SDS011;11154;48.558;9.234;2023-08-24T00:26:23;7.10;;;3.40;;
21979;SDS011;11154;48.558;9.234;2023-08-24T00:28:26;4.65;;;3.45;;
21979;SDS011;11154;48.558;9.234;2023-08-24T00:30:28;5.38;;;3.42;;
21979;SDS011;11154;48.558;9.234;2023-08-24T00:32:29;4.47;;;3.47;;
21979;SDS011;11154;48.558;9.234;2023-08-24T00:34:34;6.45;;;3.70;;
21979;SDS011;11154;48.558;9.234;2023-08-24T00:36:36;4.13;;;3.40;;
21979;SDS011;11154;48.558;9.234;2023-08-24T00:38:37;3.92;;;3.40;;
21979;SDS011;11154;48.558;9.234;2023-08-24T00:40:40;6.53;;;3.67;;
21979;SDS011;11154;48.558;9.234;2023-08-24T00:42:44;3.92;;;3.28;;
21979;SDS011;11154;48.558;9.234;2023-08-24T00:44:47;6.57;;;3.88;;
21979;SDS011;11154;48.558;9.234;2023-08-24T00:46:49;4.80;;;3.60;;
21979;SDS011;11154;48.558;9.234;2023-08-24T00:48:50;5.43;;;3.47;;
21979;SDS011;11154;48.558;9.234;2023-08-24T00:50:52;6.22;;;3.38;;
21979;SDS011;11154;48.558;9.234;2023-08-24T00:52:54;5.75;;;3.50;;
21979;SDS011;11154;48.558;9.234;2023-08-24T00:54:56;6.53;;;3.47;;
21979;SDS011;11154;48.558;9.234;2023-08-24T00:56:57;6.90;;;3.85;;
21979;SDS011;11154;48.558;9.234;2023-08-24T00:58:59;6.35;;;3.60;;
21979;SDS011;11154;48.558;9.234;2023-08-24T01:01:01;6.22;;;3.80;;
21979;SDS011;11154;48.558;9.234;2023-08-24T01:03:03;6.30;;;3.58;;
21979;SDS011;11154;48.558;9.234;2023-08-24T01:05:05;8.23;;;4.00;;
21979;SDS011;11154;48.558;9.234;2023-08-24T01:07:07;5.53;;;3.50;;
21979;SDS011;11154;48.558;9.234;2023-08-24T01:09:09;7.53;;;3.65;;
21979;SDS011;11154;48.558;9.234;2023-08-24T01:11:12;6.50;;;3.58;;
21979;SDS011;11154;48.558;9.234;2023-08-24T01:15:29;5.45;;;3.63;;
21979;SDS011;11154;48.558;9.234;2023-08-24T01:17:37;6.28;;;4.20;;
21979;SDS011;11154;48.558;9.234;2023-08-24T01:19:41;6.40;;;3.60;;
21979;SDS011;11154;48.558;9.234;2023-08-24T01:21:44;5.47;;;3.80;;
21979;SDS011;11154;48.558;9.234;2023-08-24T01:23:47;5.60;;;3.70;;
21979;SDS011;11154;48.558;9.234;2023-08-24T01:26:05;5.20;;;3.58;;
21979;SDS011;11154;48.558;9.234;2023-08-24T01:28:18;9.53;;;3.77;;
21979;SDS011;11154;48.558;9.234;2023-08-24T01:30:20;4.30;;;3.03;;
21979;SDS011;11154;48.558;9.234;2023-08-24T01:32:22;4.03;;;3.20;;
21979;SDS011;11154;48.558;9.234;2023-08-24T01:34:24;6.60;;;3.40;;
21979;SDS011;11154;48.558;9.234;2023-08-24T01:36:25;6.03;;;3.55;;
21979;SDS011;11154;48.558;9.234;2023-08-24T01:38:27;5.53;;;3.15;;
21979;SDS011;11154;48.558;9.234;2023-08-24T01:40:31;5.00;;;3.30;;
21979;SDS011;11154;48.558;9.234;2023-08-24T01:42:45;4.68;;;3.67;;
21979;SDS011;11154;48.558;9.234;2023-08-24T01:46:54;10.98;;;3.50;;
21979;SDS011;11154;48.558;9.234;2023-08-24T01:48:57;5.38;;;3.40;;
21979;SDS011;11154;48.558;9.234;2023-08-24T01:50:59;6.53;;;3.40;;
21979;SDS011;11154;48.558;9.234;2023-08-24T01:53:03;7.45;;;3.50;;
21979;SDS011;11154;48.558;9.234;2023-08-24T01:55:05;7.35;;;3.60;;
21979;SDS011;11154;48.558;9.234;2023-08-24T01:57:07;7.15;;;3.70;;
21979;SDS011;11154;48.558;9.234;2023-08-24T01:59:10;5.63;;;3.60;;
21979;SDS011;11154;48.558;9.234;2023-08-24T02:01:11;7.57;;;3.80;;
21979;SDS011;11154;48.558;9.234;2023-08-24T02:03:13;4.40;;;3.53;;
21979;SDS011;11154;48.558;9.234;2023-08-24T02:05:13;6.25;;;4.07;;
21979;SDS011;11154;48.558;9.234;2023-08-24T02:07:15;6.65;;;3.90;;
21979;SDS011;11154;48.558;9.234;2023-08-24T02:09:17;6.38;;;3.78;;
21979;SDS011;11154;48.558;9.234;2023-08-24T02:11:19;6.45;;;3.90;;
21979;SDS011;11154;48.558;9.234;2023-08-24T02:13:21;4.35;;;3.55;;
21979;SDS011;11154;48.558;9.234;2023-08-24T02:15:24;5.10;;;3.88;;
21979;SDS011;11154;48.558;9.234;2023-08-24T02:17:25;3.90;;;3.50;;
21979;SDS011;11154;48.558;9.234;2023-08-24T02:19:27;7.40;;;4.10;;
21979;SDS011;11154;48.558;9.234;2023-08-24T02:21:29;7.00;;;4.10;;
21979;SDS011;11154;48.558;9.234;2023-08-24T02:23:31;6.13;;;4.40;;
21979;SDS011;11154;48.558;9.234;2023-08-24T02:25:32;4.55;;;3.72;;
21979;SDS011;11154;48.558;9.234;2023-08-24T02:27:34;5.75;;;4.05;;
21979;SDS011;11154;48.558;9.234;2023-08-24T02:29:36;5.75;;;3.67;;
21979;SDS011;11154;48.558;9.234;2023-08-24T02:31:40;5.88;;;3.58;;
21979;SDS011;11154;48.558;9.234;2023-08-24T02:33:42;7.05;;;3.65;;
21979;SDS011;11154;48.558;9.234;2023-08-24T02:35:43;4.38;;;3.55;;
21979;SDS011;11154;48.558;9.234;2023-08-24T02:37:47;7.40;;;3.88;;
21979;SDS011;11154;48.558;9.234;2023-08-24T02:39:49;6.57;;;3.90;;
21979;SDS011;11154;48.558;9.234;2023-08-24T02:41:51;7.32;;;4.30;;
21979;SDS011;11154;48.558;9.234;2023-08-24T02:43:53;13.80;;;4.32;;
21979;SDS011;11154;48.558;9.234;2023-08-24T02:45:58;4.20;;;3.80;;
21979;SDS011;11154;48.558;9.234;2023-08-24T02:48:02;7.13;;;3.90;;
21979;SDS011;11154;48.558;9.234;2023-08-24T02:50:05;8.27;;;3.58;;
21979;SDS011;11154;48.558;9.234;2023-08-24T02:52:07;8.25;;;4.20;;
21979;SDS011;11154;48.558;9.234;2023-08-24T02:54:09;5.72;;;3.90;;
21979;SDS011;11154;48.558;9.234;2023-08-24T02:56:10;5.82;;;3.90;;
21979;SDS011;11154;48.558;9.234;2023-08-24T02:58:12;6.53;;;4.28;;
21979;SDS011;11154;48.558;9.234;2023-08-24T03:00:13;4.57;;;3.92;;
21979;SDS011;11154;48.558;9.234;2023-08-24T03:02:14;4.65;;;3.55;;
21979;SDS011;11154;48.558;9.234;2023-08-24T03:04:17;7.65;;;4.25;;
21979;SDS011;11154;48.558;9.234;2023-08-24T03:06:19;3.92;;;3.25;;
21979;SDS011;11154;48.558;9.234;2023-08-24T03:08:21;6.85;;;3.72;;
21979;SDS011;11154;48.558;9.234;2023-08-24T03:10:22;6.90;;;3.97;;
21979;SDS011;11154;48.558;9.234;2023-08-24T03:12:24;8.18;;;4.07;;
21979;SDS011;11154;48.558;9.234;2023-08-24T03:14:26;5.95;;;3.85;;
21979;SDS011;11154;48.558;9.234;2023-08-24T03:16:27;7.95;;;4.22;;
21979;SDS011;11154;48.558;9.234;2023-08-24T03:18:29;5.55;;;4.00;;
21979;SDS011;11154;48.558;9.234;2023-08-24T03:20:32;5.65;;;4.03;;
21979;SDS011;11154;48.558;9.234;2023-08-24T03:22:34;6.05;;;4.13;;
21979;SDS011;11154;48.558;9.234;2023-08-24T03:24:36;7.68;;;3.92;;
21979;SDS011;11154;48.558;9.234;2023-08-24T03:26:37;5.05;;;3.85;;
21979;SDS011;11154;48.558;9.234;2023-08-24T03:28:39;4.85;;;3.67;;
21979;SDS011;11154;48.558;9.234;2023-08-24T03:30:45;5.05;;;3.90;;
21979;SDS011;11154;48.558;9.234;2023-08-24T03:32:47;5.68;;;3.97;;
21979;SDS011;11154;48.558;9.234;2023-08-24T03:34:49;12.13;;;3.88;;
21979;SDS011;11154;48.558;9.234;2023-08-24T03:36:52;7.85;;;3.72;;
21979;SDS011;11154;48.558;9.234;2023-08-24T03:38:53;6.00;;;4.00;;
21979;SDS011;11154;48.558;9.234;2023-08-24T03:40:59;4.15;;;3.67;;
21979;SDS011;11154;48.558;9.234;2023-08-24T03:43:01;4.90;;;3.67;;
21979;SDS011;11154;48.558;9.234;2023-08-24T03:45:03;7.22;;;4.05;;
21979;SDS011;11154;48.558;9.234;2023-08-24T03:47:05;7.22;;;3.80;;
21979;SDS011;11154;48.558;9.234;2023-08-24T03:49:07;4.55;;;3.63;;
21979;SDS011;11154;48.558;9.234;2023-08-24T03:51:08;5.75;;;3.95;;
21979;SDS011;11154;48.558;9.234;2023-08-24T03:53:11;5.82;;;4.00;;
21979;SDS011;11154;48.558;9.234;2023-08-24T03:55:13;4.25;;;3.63;;
21979;SDS011;11154;48.558;9.234;2023-08-24T03:57:14;5.88;;;5.15;;
21979;SDS011;11154;48.558;9.234;2023-08-24T03:59:16;6.63;;;4.32;;
21979;SDS011;11154;48.558;9.234;2023-08-24T04:01:18;5.72;;;4.30;;
21979;SDS011;11154;48.558;9.234;2023-08-24T04:03:19;8.25;;;4.43;;
21979;SDS011;11154;48.558;9.234;2023-08-24T04:05:20;6.05;;;4.82;;
21979;SDS011;11154;48.558;9.234;2023-08-24T04:07:22;7.30;;;4.32;;
21979;SDS011;11154;48.558;9.234;2023-08-24T04:09:25;7.47;;;4.10;;
21979;SDS011;11154;48.558;9.234;2023-08-24T04:11:26;4.97;;;3.80;;
21979;SDS011;11154;48.558;9.234;2023-08-24T04:13:28;4.22;;;3.72;;
21979;SDS011;11154;48.558;9.234;2023-08-24T04:15:29;6.00;;;3.85;;
21979;SDS011;11154;48.558;9.234;2023-08-24T04:17:31;5.53;;;3.90;;
21979;SDS011;11154;48.558;9.234;2023-08-24T04:19:32;8.95;;;4.07;;
21979;SDS011;11154;48.558;9.234;2023-08-24T04:21:34;4.40;;;3.63;;
21979;SDS011;11154;48.558;9.234;2023-08-24T04:23:36;7.07;;;3.83;;
21979;SDS011;11154;48.558;9.234;2023-08-24T04:25:40;5.57;;;3.85;;
21979;SDS011;11154;48.558;9.234;2023-08-24T04:27:43;4.80;;;4.25;;
21979;SDS011;11154;48.558;9.234;2023-08-24T04:29:44;4.85;;;3.90;;
21979;SDS011;11154;48.558;9.234;2023-08-24T04:31:46;6.18;;;4.30;;
21979;SDS011;11154;48.558;9.234;2023-08-24T04:33:47;6.18;;;4.35;;
21979;SDS011;11154;48.558;9.234;2023-08-24T04:35:49;7.55;;;4.20;;
21979;SDS011;11154;48.558;9.234;2023-08-24T04:37:51;8.18;;;4.25;;
21979;SDS011;11154;48.558;9.234;2023-08-24T04:39:53;6.50;;;4.53;;
21979;SDS011;11154;48.558;9.234;2023-08-24T04:41:55;9.35;;;4.68;;
21979;SDS011;11154;48.558;9.234;2023-08-24T04:43:56;6.95;;;4.43;;
21979;SDS011;11154;48.558;9.234;2023-08-24T04:45:58;8.43;;;4.82;;
21979;SDS011;11154;48.558;9.234;2023-08-24T04:47:59;6.45;;;4.30;;
21979;SDS011;11154;48.558;9.234;2023-08-24T04:50:03;8.05;;;4.30;;
21979;SDS011;11154;48.558;9.234;2023-08-24T04:52:05;6.43;;;4.00;;
21979;SDS011;11154;48.558;9.234;2023-08-24T04:54:07;5.13;;;4.20;;
21979;SDS011;11154;48.558;9.234;2023-08-24T04:56:09;5.57;;;4.22;;
21979;SDS011;11154;48.558;9.234;2023-08-24T04:58:12;4.80;;;4.00;;
21979;SDS011;11154;48.558;9.234;2023-08-24T05:00:15;6.85;;;4.60;;
21979;SDS011;11154;48.558;9.234;2023-08-24T05:02:17;5.43;;;4.00;;
21979;SDS011;11154;48.558;9.234;2023-08-24T05:04:18;7.20;;;4.18;;
21979;SDS011;11154;48.558;9.234;2023-08-24T05:06:20;5.45;;;4.35;;
21979;SDS011;11154;48.558;9.234;2023-08-24T05:08:22;5.10;;;3.90;;
21979;SDS011;11154;48.558;9.234;2023-08-24T05:10:24;4.97;;;4.28;;
21979;SDS011;11154;48.558;9.234;2023-08-24T05:12:26;5.40;;;3.85;;
21979;SDS011;11154;48.558;9.234;2023-08-24T05:14:29;5.95;;;4.57;;
21979;SDS011;11154;48.558;9.234;2023-08-24T05:16:30;5.63;;;4.10;;
21979;SDS011;11154;48.558;9.234;2023-08-24T05:18:33;7.22;;;4.40;;
21979;SDS011;11154;48.558;9.234;2023-08-24T05:20:36;6.20;;;4.20;;
21979;SDS011;11154;48.558;9.234;2023-08-24T05:22:37;7.35;;;3.88;;
21979;SDS011;11154;48.558;9.234;2023-08-24T05:24:39;8.73;;;4.70;;
21979;SDS011;11154;48.558;9.234;2023-08-24T05:26:41;7.35;;;4.43;;
21979;SDS011;11154;48.558;9.234;2023-08-24T05:28:43;6.95;;;4.30;;
21979;SDS011;11154;48.558;9.234;2023-08-24T05:30:45;5.60;;;4.97;;
21979;SDS011;11154;48.558;9.234;2023-08-24T05:32:46;6.30;;;4.70;;
21979;SDS011;11154;48.558;9.234;2023-08-24T05:34:48;7.68;;;4.38;;
21979;SDS011;11154;48.558;9.234;2023-08-24T05:36:49;5.47;;;4.20;;
21979;SDS011;11154;48.558;9.234;2023-08-24T05:38:51;6.82;;;4.50;;
21979;SDS011;11154;48.558;9.234;2023-08-24T05:40:56;6.85;;;4.80;;
21979;SDS011;11154;48.558;9.234;2023-08-24T05:42:58;7.70;;;4.32;;
21979;SDS011;11154;48.558;9.234;2023-08-24T05:44:59;5.45;;;4.35;;
21979;SDS011;11154;48.558;9.234;2023-08-24T05:47:02;6.72;;;4.43;;
21979;SDS011;11154;48.558;9.234;2023-08-24T05:49:04;10.75;;;4.93;;
21979;SDS011;11154;48.558;9.234;2023-08-24T05:51:05;5.40;;;4.28;;
21979;SDS011;11154;48.558;9.234;2023-08-24T05:53:09;5.57;;;3.95;;
21979;SDS011;11154;48.558;9.234;2023-08-24T05:55:10;5.50;;;3.90;;
21979;SDS011;11154;48.558;9.234;2023-08-24T05:57:12;6.03;;;4.00;;
21979;SDS011;11154;48.558;9.234;2023-08-24T05:59:14;8.32;;;4.10;;
21979;SDS011;11154;48.558;9.234;2023-08-24T06:01:16;4.95;;;4.38;;
21979;SDS011;11154;48.558;9.234;2023-08-24T06:03:19;6.03;;;4.50;;
21979;SDS011;11154;48.558;9.234;2023-08-24T06:05:20;6.35;;;4.68;;
21979;SDS011;11154;48.558;9.234;2023-08-24T06:07:22;5.03;;;4.53;;
21979;SDS011;11154;48.558;9.234;2023-08-24T06:09:24;5.05;;;4.40;;
21979;SDS011;11154;48.558;9.234;2023-08-24T06:11:26;5.55;;;4.35;;
21979;SDS011;11154;48.558;9.234;2023-08-24T06:13:28;4.85;;;3.92;;
21979;SDS011;11154;48.558;9.234;2023-08-24T06:15:29;7.80;;;4.38;;
21979;SDS011;11154;48.558;9.234;2023-08-24T06:17:31;8.32;;;4.63;;
21979;SDS011;11154;48.558;9.234;2023-08-24T06:19:33;5.50;;;4.57;;
21979;SDS011;11154;48.558;9.234;2023-08-24T06:21:34;5.30;;;4.80;;
21979;SDS011;11154;48.558;9.234;2023-08-24T06:23:36;6.93;;;4.47;;
21979;SDS011;11154;48.558;9.234;2023-08-24T06:25:38;6.18;;;4.20;;
21979;SDS011;11154;48.558;9.234;2023-08-24T06:27:39;7.60;;;4.03;;
21979;SDS011;11154;48.558;9.234;2023-08-24T06:29:42;5.63;;;4.40;;
21979;SDS011;11154;48.558;9.234;2023-08-24T06:31:43;5.78;;;4.40;;
21979;SDS011;11154;48.558;9.234;2023-08-24T06:33:45;9.85;;;4.70;;
21979;SDS011;11154;48.558;9.234;2023-08-24T06:35:48;11.50;;;4.25;;
21979;SDS011;11154;48.558;9.234;2023-08-24T06:37:49;5.13;;;3.85;;
21979;SDS011;11154;48.558;9.234;2023-08-24T06:39:51;7.13;;;4.38;;
21979;SDS011;11154;48.558;9.234;2023-08-24T06:41:53;8.05;;;4.32;;
21979;SDS011;11154;48.558;9.234;2023-08-24T06:43:54;6.85;;;4.80;;
21979;SDS011;11154;48.558;9.234;2023-08-24T06:45:56;7.97;;;4.97;;
21979;SDS011;11154;48.558;9.234;2023-08-24T06:47:58;7.93;;;4.97;;
21979;SDS011;11154;48.558;9.234;2023-08-24T06:49:58;7.43;;;4.47;;
21979;SDS011;11154;48.558;9.234;2023-08-24T06:52:02;7.15;;;4.88;;
21979;SDS011;11154;48.558;9.234;2023-08-24T06:54:04;6.65;;;4.82;;
21979;SDS011;11154;48.558;9.234;2023-08-24T06:56:05;7.00;;;4.15;;
21979;SDS011;11154;48.558;9.234;2023-08-24T06:58:07;5.82;;;4.80;;
21979;SDS011;11154;48.558;9.234;2023-08-24T07:00:09;5.25;;;4.32;;
21979;SDS011;11154;48.558;9.234;2023-08-24T07:02:15;7.07;;;4.53;;
21979;SDS011;11154;48.558;9.234;2023-08-24T07:04:17;8.23;;;4.40;;
21979;SDS011;11154;48.558;9.234;2023-08-24T07:06:19;6.07;;;4.40;;
21979;SDS011;11154;48.558;9.234;2023-08-24T07:08:22;6.82;;;4.70;;
21979;SDS011;11154;48.558;9.234;2023-08-24T07:10:24;7.80;;;4.43;;
21979;SDS011;11154;48.558;9.234;2023-08-24T07:12:26;6.38;;;4.30;;
21979;SDS011;11154;48.558;9.234;2023-08-24T07:14:27;5.82;;;4.78;;
21979;SDS011;11154;48.558;9.234;2023-08-24T07:16:29;5.80;;;4.63;;
21979;SDS011;11154;48.558;9.234;2023-08-24T07:18:30;8.68;;;4.88;;
21979;SDS011;11154;48.558;9.234;2023-08-24T07:20:32;6.65;;;4.72;;
21979;SDS011;11154;48.558;9.234;2023-08-24T07:22:34;6.47;;;4.70;;
21979;SDS011;11154;48.558;9.234;2023-08-24T07:24:37;10.75;;;4.55;;
21979;SDS011;11154;48.558;9.234;2023-08-24T07:26:39;8.35;;;4.88;;
21979;SDS011;11154;48.558;9.234;2023-08-24T07:28:41;6.70;;;4.55;;
21979;SDS011;11154;48.558;9.234;2023-08-24T07:30:42;6.35;;;4.90;;
21979;SDS011;11154;48.558;9.234;2023-08-24T07:32:43;7.63;;;5.10;;
21979;SDS011;11154;48.558;9.234;2023-08-24T07:34:45;12.57;;;6.93;;
21979;SDS011;11154;48.558;9.234;2023-08-24T07:36:47;7.72;;;5.40;;
21979;SDS011;11154;48.558;9.234;2023-08-24T07:38:48;8.27;;;5.40;;
21979;SDS011;11154;48.558;9.234;2023-08-24T07:40:51;7.22;;;4.95;;
21979;SDS011;11154;48.558;9.234;2023-08-24T07:42:53;7.00;;;4.55;;
21979;SDS011;11154;48.558;9.234;2023-08-24T07:44:56;6.13;;;4.28;;
21979;SDS011;11154;48.558;9.234;2023-08-24T07:46:58;7.57;;;4.50;;
21979;SDS011;11154;48.558;9.234;2023-08-24T07:49:00;6.63;;;4.57;;
21979;SDS011;11154;48.558;9.234;2023-08-24T07:51:01;7.00;;;4.63;;
21979;SDS011;11154;48.558;9.234;2023-08-24T07:53:03;6.15;;;4.07;;
21979;SDS011;11154;48.558;9.234;2023-08-24T07:55:05;6.10;;;4.18;;
21979;SDS011;11154;48.558;9.234;2023-08-24T07:57:08;8.32;;;4.40;;
21979;SDS011;11154;48.558;9.234;2023-08-24T07:59:10;8.02;;;4.22;;
21979;SDS011;11154;48.558;9.234;2023-08-24T08:01:11;8.88;;;4.70;;
21979;SDS011;11154;48.558;9.234;2023-08-24T08:03:13;8.63;;;4.38;;
21979;SDS011;11154;48.558;9.234;2023-08-24T08:05:14;5.22;;;4.28;;
21979;SDS011;11154;48.558;9.234;2023-08-24T08:07:15;6.90;;;4.15;;
21979;SDS011;11154;48.558;9.234;2023-08-24T08:09:17;6.53;;;4.40;;
21979;SDS011;11154;48.558;9.234;2023-08-24T08:11:18;6.22;;;4.03;;
21979;SDS011;11154;48.558;9.234;2023-08-24T08:13:22;11.90;;;4.05;;
21979;SDS011;11154;48.558;9.234;2023-08-24T08:15:24;5.30;;;3.85;;
21979;SDS011;11154;48.558;9.234;2023-08-24T08:17:26;7.32;;;4.60;;
21979;SDS011;11154;48.558;9.234;2023-08-24T08:19:27;8.35;;;4.22;;
21979;SDS011;11154;48.558;9.234;2023-08-24T08:21:29;7.97;;;4.63;;
21979;SDS011;11154;48.558;9.234;2023-08-24T08:23:31;7.32;;;4.20;;
21979;SDS011;11154;48.558;9.234;2023-08-24T08:25:32;7.35;;;4.13;;
21979;SDS011;11154;48.558;9.234;2023-08-24T08:27:33;6.40;;;4.10;;
21979;SDS011;11154;48.558;9.234;2023-08-24T08:29:36;7.55;;;4.32;;
21979;SDS011;11154;48.558;9.234;2023-08-24T08:31:38;11.05;;;4.75;;
21979;SDS011;11154;48.558;9.234;2023-08-24T08:33:39;5.05;;;4.13;;
21979;SDS011;11154;48.558;9.234;2023-08-24T08:35:41;6.10;;;4.80;;
21979;SDS011;11154;48.558;9.234;2023-08-24T08:37:43;8.73;;;4.50;;
21979;SDS011;11154;48.558;9.234;2023-08-24T08:39:44;7.47;;;4.47;;
21979;SDS011;11154;48.558;9.234;2023-08-24T08:41:45;7.28;;;4.30;;
21979;SDS011;11154;48.558;9.234;2023-08-24T08:43:47;9.88;;;4.22;;
21979;SDS011;11154;48.558;9.234;2023-08-24T08:45:51;7.45;;;4.50;;
21979;SDS011;11154;48.558;9.234;2023-08-24T08:47:55;8.70;;;4.88;;
21979;SDS011;11154;48.558;9.234;2023-08-24T08:49:59;9.30;;;4.30;;
21979;SDS011;11154;48.558;9.234;2023-08-24T08:52:03;6.50;;;4.03;;
21979;SDS011;11154;48.558;9.234;2023-08-24T08:54:05;7.22;;;4.35;;
21979;SDS011;11154;48.558;9.234;2023-08-24T08:56:07;6.75;;;4.65;;
21979;SDS011;11154;48.558;9.234;2023-08-24T08:58:09;6.15;;;3.78;;
21979;SDS011;11154;48.558;9.234;2023-08-24T09:00:12;6.88;;;4.25;;
21979;SDS011;11154;48.558;9.234;2023-08-24T09:02:18;6.53;;;4.05;;
21979;SDS011;11154;48.558;9.234;2023-08-24T09:04:20;6.68;;;3.85;;
21979;SDS011;11154;48.558;9.234;2023-08-24T09:06:22;6.05;;;4.32;;
21979;SDS011;11154;48.558;9.234;2023-08-24T09:08:23;7.88;;;3.70;;
21979;SDS011;11154;48.558;9.234;2023-08-24T09:10:26;5.50;;;3.83;;
21979;SDS011;11154;48.558;9.234;2023-08-24T09:12:28;5.22;;;3.90;;
21979;SDS011;11154;48.558;9.234;2023-08-24T09:14:33;8.70;;;4.25;;
21979;SDS011;11154;48.558;9.234;2023-08-24T09:16:34;6.45;;;4.00;;
21979;SDS011;11154;48.558;9.234;2023-08-24T09:18:38;8.82;;;4.03;;
21979;SDS011;11154;48.558;9.234;2023-08-24T09:20:41;9.15;;;3.83;;
21979;SDS011;11154;48.558;9.234;2023-08-24T09:22:42;4.68;;;3.47;;
21979;SDS011;11154;48.558;9.234;2023-08-24T09:24:48;5.10;;;3.95;;
21979;SDS011;11154;48.558;9.234;2023-08-24T09:26:50;7.88;;;3.47;;
21979;SDS011;11154;48.558;9.234;2023-08-24T09:28:51;8.10;;;3.83;;
21979;SDS011;11154;48.558;9.234;2023-08-24T09:30:53;4.43;;;3.58;;
21979;SDS011;11154;48.558;9.234;2023-08-24T09:32:55;6.93;;;3.33;;
21979;SDS011;11154;48.558;9.234;2023-08-24T09:35:04;6.25;;;3.70;;
21979;SDS011;11154;48.558;9.234;2023-08-24T09:37:13;4.90;;;3.40;;
21979;SDS011;11154;48.558;9.234;2023-08-24T09:39:16;7.57;;;3.90;;
21979;SDS011;11154;48.558;9.234;2023-08-24T09:41:17;6.75;;;3.45;;
21979;SDS011;11154;48.558;9.234;2023-08-24T09:43:19;7.90;;;3.53;;
21979;SDS011;11154;48.558;9.234;2023-08-24T09:45:20;6.28;;;3.80;;
21979;SDS011;11154;48.558;9.234;2023-08-24T09:47:22;6.32;;;3.20;;
21979;SDS011;11154;48.558;9.234;2023-08-24T09:49:24;4.82;;;3.40;;
21979;SDS011;11154;48.558;9.234;2023-08-24T09:51:28;6.45;;;3.58;;
21979;SDS011;11154;48.558;9.234;2023-08-24T09:53:32;4.68;;;3.50;;
21979;SDS011;11154;48.558;9.234;2023-08-24T09:55:38;9.23;;;3.58;;
21979;SDS011;11154;48.558;9.234;2023-08-24T09:57:40;10.90;;;3.78;;
21979;SDS011;11154;48.558;9.234;2023-08-24T09:59:44;10.27;;;3.30;;
21979;SDS011;11154;48.558;9.234;2023-08-24T10:01:49;6.47;;;3.10;;
21979;SDS011;11154;48.558;9.234;2023-08-24T10:03:54;6.80;;;3.60;;
21979;SDS011;11154;48.558;9.234;2023-08-24T10:05:57;6.45;;;3.40;;
21979;SDS011;11154;48.558;9.234;2023-08-24T10:08:02;6.28;;;3.30;;
21979;SDS011;11154;48.558;9.234;2023-08-24T10:10:06;8.68;;;3.55;;
21979;SDS011;11154;48.558;9.234;2023-08-24T10:12:13;10.45;;;3.40;;
21979;SDS011;11154;48.558;9.234;2023-08-24T10:14:21;8.02;;;3.63;;
21979;SDS011;11154;48.558;9.234;2023-08-24T10:16:28;5.53;;;3.55;;
21979;SDS011;11154;48.558;9.234;2023-08-24T10:18:31;7.70;;;3.72;;
21979;SDS011;11154;48.558;9.234;2023-08-24T10:20:33;8.43;;;3.60;;
21979;SDS011;11154;48.558;9.234;2023-08-24T10:22:35;13.98;;;3.83;;
21979;SDS011;11154;48.558;9.234;2023-08-24T10:24:41;5.88;;;3.13;;
21979;SDS011;11154;48.558;9.234;2023-08-24T10:26:44;4.57;;;3.17;;
21979;SDS011;11154;48.558;9.234;2023-08-24T10:28:46;6.00;;;3.35;;
21979;SDS011;11154;48.558;9.234;2023-08-24T10:30:48;7.40;;;3.40;;
21979;SDS011;11154;48.558;9.234;2023-08-24T10:32:51;8.75;;;3.60;;
21979;SDS011;11154;48.558;9.234;2023-08-24T10:34:53;8.55;;;3.53;;
21979;SDS011;11154;48.558;9.234;2023-08-24T10:36:55;8.10;;;3.50;;
21979;SDS011;11154;48.558;9.234;2023-08-24T10:38:57;4.68;;;3.50;;
21979;SDS011;11154;48.558;9.234;2023-08-24T10:41:07;8.20;;;3.45;;
21979;SDS011;11154;48.558;9.234;2023-08-24T10:43:08;9.07;;;3.33;;
21979;SDS011;11154;48.558;9.234;2023-08-24T10:45:09;7.65;;;3.50;;
21979;SDS011;11154;48.558;9.234;2023-08-24T10:47:12;5.10;;;3.65;;
21979;SDS011;11154;48.558;9.234;2023-08-24T10:49:18;7.40;;;3.40;;
21979;SDS011;11154;48.558;9.234;2023-08-24T10:51:21;8.48;;;3.63;;
21979;SDS011;11154;48.558;9.234;2023-08-24T10:53:38;4.85;;;3.78;;
21979;SDS011;11154;48.558;9.234;2023-08-24T10:55:40;9.48;;;3.80;;
21979;SDS011;11154;48.558;9.234;2023-08-24T10:57:43;8.95;;;3.70;;
21979;SDS011;11154;48.558;9.234;2023-08-24T10:59:44;6.55;;;3.38;;
21979;SDS011;11154;48.558;9.234;2023-08-24T11:01:54;7.45;;;3.80;;
21979;SDS011;11154;48.558;9.234;2023-08-24T11:03:56;8.30;;;3.92;;
21979;SDS011;11154;48.558;9.234;2023-08-24T11:05:58;6.07;;;3.85;;
21979;SDS011;11154;48.558;9.234;2023-08-24T11:08:00;8.07;;;4.10;;
21979;SDS011;11154;48.558;9.234;2023-08-24T11:10:10;7.25;;;3.45;;
21979;SDS011;11154;48.558;9.234;2023-08-24T11:12:13;9.45;;;3.80;;
21979;SDS011;11154;48.558;9.234;2023-08-24T11:14:16;7.53;;;3.95;;
21979;SDS011;11154;48.558;9.234;2023-08-24T11:18:42;8.20;;;4.10;;
21979;SDS011;11154;48.558;9.234;2023-08-24T11:20:45;7.82;;;3.63;;
21979;SDS011;11154;48.558;9.234;2023-08-24T11:22:46;6.80;;;4.07;;
21979;SDS011;11154;48.558;9.234;2023-08-24T11:24:48;6.60;;;3.85;;
21979;SDS011;11154;48.558;9.234;2023-08-24T11:26:50;8.95;;;4.05;;
21979;SDS011;11154;48.558;9.234;2023-08-24T11:28:52;9.48;;;4.00;;
21979;SDS011;11154;48.558;9.234;2023-08-24T11:30:55;10.70;;;3.95;;
21979;SDS011;11154;48.558;9.234;2023-08-24T11:32:57;7.38;;;3.90;;
21979;SDS011;11154;48.558;9.234;2023-08-24T11:34:59;5.55;;;3.67;;
21979;SDS011;11154;48.558;9.234;2023-08-24T11:37:01;5.20;;;4.30;;
21979;SDS011;11154;48.558;9.234;2023-08-24T11:39:03;10.38;;;3.40;;
21979;SDS011;11154;48.558;9.234;2023-08-24T11:41:10;4.00;;;3.08;;
21979;SDS011;11154;48.558;9.234;2023-08-24T11:43:12;7.25;;;3.75;;
21979;SDS011;11154;48.558;9.234;2023-08-24T11:45:13;8.85;;;3.78;;
21979;SDS011;11154;48.558;9.234;2023-08-24T11:47:17;8.85;;;4.10;;
21979;SDS011;11154;48.558;9.234;2023-08-24T11:49:21;6.18;;;3.60;;
21979;SDS011;11154;48.558;9.234;2023-08-24T11:51:22;11.57;;;3.92;;
21979;SDS011;11154;48.558;9.234;2023-08-24T11:53:25;11.93;;;4.30;;
21979;SDS011;11154;48.558;9.234;2023-08-24T11:55:28;10.00;;;3.65;;
21979;SDS011;11154;48.558;9.234;2023-08-24T11:57:33;7.43;;;3.78;;
21979;SDS011;11154;48.558;9.234;2023-08-24T11:59:34;8.48;;;4.22;;
21979;SDS011;11154;48.558;9.234;2023-08-24T12:01:37;8.38;;;4.57;;
21979;SDS011;11154;48.558;9.234;2023-08-24T12:03:42;7.43;;;3.97;;
21979;SDS011;11154;48.558;9.234;2023-08-24T12:05:42;7.68;;;3.70;;
21979;SDS011;11154;48.558;9.234;2023-08-24T12:07:44;9.13;;;3.95;;
21979;SDS011;11154;48.558;9.234;2023-08-24T12:09:45;9.05;;;4.18;;
21979;SDS011;11154;48.558;9.234;2023-08-24T12:11:47;12.98;;;4.40;;
21979;SDS011;11154;48.558;9.234;2023-08-24T12:13:49;6.95;;;4.40;;
21979;SDS011;11154;48.558;9.234;2023-08-24T12:15:52;9.68;;;4.00;;
21979;SDS011;11154;48.558;9.234;2023-08-24T12:17:55;8.77;;;4.55;;
21979;SDS011;11154;48.558;9.234;2023-08-24T12:19:58;9.48;;;3.67;;
21979;SDS011;11154;48.558;9.234;2023-08-24T12:22:01;7.78;;;4.20;;
21979;SDS011;11154;48.558;9.234;2023-08-24T12:24:03;9.98;;;4.53;;
21979;SDS011;11154;48.558;9.234;2023-08-24T12:26:06;7.13;;;3.75;;